Time;durP1;ratioP1;P1;durP2;ratioP2;P2;SDS_P1;SDS_P2;PMS_P1;PMS_P2;Temp;Humidity;BMP_temperature;BMP_pressure;BME280_temperature;BME280_humidity;BME280_pressure;Samples;Min_cycle;Max_cycle;Signal;HPM_P1;HPM_P2
2022/01/30 00:01:02;;;;;;;18.73;10.37;;;;;;;-0.28;67.18;97488.19;6149283;23;20163;-83
2022/01/30 00:03:30;;;;;;;19.13;10.27;;;;;;;-0.34;67.58;97504.28;6152020;23;20182;-83
2022/01/30 00:06:07;;;;;;;21.80;12.70;;;;;;;-0.45;67.76;97477.09;6128240;23;20260;-83
2022/01/30 00:08:40;;;;;;;19.40;11.80;;;;;;;-0.43;67.72;97476.25;6178583;23;20159;-83
2022/01/30 00:11:20;;;;;;;18.40;11.87;;;;;;;-0.30;67.60;97494.97;6180626;23;20177;-83
2022/01/30 00:13:49;;;;;;;14.70;9.93;;;;;;;-0.46;67.89;97478.81;6155297;23;20167;-83
2022/01/30 00:16:19;;;;;;;18.70;11.13;;;;;;;-0.57;68.01;97451.59;6179772;23;20158;-84
2022/01/30 00:26:29;;;;;;;17.43;8.53;;;;;;;-1.25;69.14;97487.66;6181417;23;20199;-83
2022/01/30 00:28:59;;;;;;;28.87;12.43;;;;;;;-1.56;70.66;97470.50;6157673;23;20173;-84
2022/01/30 00:31:30;;;;;;;20.83;10.90;;;;;;;-1.31;70.29;97494.38;6157368;23;20171;-83
2022/01/30 00:34:21;;;;;;;13.60;8.40;;;;;;;-1.25;69.56;97476.66;6132307;23;20156;-81
2022/01/30 00:37:03;;;;;;;17.63;9.73;;;;;;;-1.36;69.91;97488.44;6155840;23;20211;-83
2022/01/30 00:39:37;;;;;;;16.87;8.83;;;;;;;-1.44;70.76;97477.38;6157165;23;20203;-83
2022/01/30 00:42:12;;;;;;;15.37;8.63;;;;;;;-1.73;71.01;97450.03;6156531;23;20171;-83
2022/01/30 00:44:41;;;;;;;12.90;8.00;;;;;;;-1.76;71.72;97472.00;6157626;23;20157;-82
2022/01/30 00:47:13;;;;;;;10.97;8.13;;;;;;;-1.85;72.22;97460.09;6182434;23;20181;-83
2022/01/30 00:49:46;;;;;;;14.13;7.97;;;;;;;-1.96;72.41;97456.59;6157322;23;20154;-88
2022/01/30 00:52:16;;;;;;;13.90;9.30;;;;;;;-2.06;72.75;97449.72;6158234;23;20186;-84
2022/01/30 00:54:48;;;;;;;17.97;9.67;;;;;;;-2.45;73.90;97418.91;6158610;23;20163;-83
2022/01/30 00:57:25;;;;;;;14.80;8.90;;;;;;;-2.22;74.16;97454.63;6153979;23;20151;-83
2022/01/30 00:59:55;;;;;;;15.37;9.03;;;;;;;-2.29;74.47;97435.13;6151440;23;20185;-83
2022/01/30 01:02:26;;;;;;;14.07;9.13;;;;;;;-2.21;74.70;97447.06;6152517;23;20153;-84
2022/01/30 01:05:04;;;;;;;15.57;8.40;;;;;;;-2.39;74.43;97423.19;6178873;23;20167;-84
2022/01/30 01:07:35;;;;;;;12.63;8.07;;;;;;;-2.30;74.87;97434.28;6127497;23;20206;-83
2022/01/30 01:10:12;;;;;;;15.97;8.33;;;;;;;-2.36;74.81;97420.69;6128401;23;20186;-83
2022/01/30 01:23:51;;;;;;;13.10;7.63;;;;;;;-2.39;73.88;97390.25;6176891;23;20175;-85
2022/01/30 01:26:21;;;;;;;13.30;7.37;;;;;;;-2.36;73.88;97380.13;6150503;23;20175;-84
2022/01/30 01:28:51;;;;;;;12.63;7.33;;;;;;;-2.48;74.10;97352.97;6176940;23;20175;-84
2022/01/30 01:31:23;;;;;;;10.87;7.43;;;;;;;-2.38;74.13;97364.03;6142051;23;20174;-82
2022/01/30 01:36:26;;;;;;;14.47;8.00;;;;;;;-2.34;73.73;97348.00;6121162;23;20228;-83
2022/01/30 01:38:56;;;;;;;12.10;8.07;;;;;;;-2.33;73.66;97367.47;6132677;23;20186;-83
2022/01/30 01:41:27;;;;;;;13.00;8.97;;;;;;;-2.39;73.86;97363.19;6159874;23;20177;-84
2022/01/30 01:43:59;;;;;;;12.47;7.53;;;;;;;-2.42;74.50;97355.56;6172736;23;20154;-82
2022/01/30 01:46:33;;;;;;;14.03;8.20;;;;;;;-2.61;73.89;97308.06;6116728;23;20258;-83
2022/01/30 01:49:03;;;;;;;10.93;7.10;;;;;;;-2.19;73.72;97351.56;6114555;23;20155;-82
2022/01/30 01:51:33;;;;;;;14.87;7.67;;;;;;;-2.05;73.20;97339.81;6114906;23;20171;-83
2022/01/30 01:54:01;;;;;;;16.50;8.60;;;;;;;-1.98;72.42;97345.81;6138227;23;20192;-83
2022/01/30 01:56:30;;;;;;;12.80;7.97;;;;;;;-1.92;72.87;97341.63;6088432;23;20217;-82
2022/01/30 01:59:07;;;;;;;15.10;8.53;;;;;;;-1.93;72.20;97327.22;6114301;23;20659;-83
2022/01/30 02:01:54;;;;;;;15.30;8.93;;;;;;;-1.89;72.12;97321.34;6160690;23;20175;-83
2022/01/30 02:04:26;;;;;;;14.47;8.93;;;;;;;-1.81;71.96;97314.63;6087695;23;20176;-82
2022/01/30 02:08:00;;;;;;;18.57;9.00;;;;;;;-1.60;71.44;97320.66;6109819;23;20214;-82
2022/01/30 02:10:16;;;;;;;14.37;8.80;;;;;;;-1.63;70.83;97324.06;6140658;23;20200;-82
2022/01/30 02:27:49;;;;;;;15.97;8.20;;;;;;;-1.85;70.98;97297.69;6137007;23;20673;-83
2022/01/30 02:30:19;;;;;;;15.73;8.77;;;;;;;-1.98;70.95;97267.16;6135583;23;20222;-83
2022/01/30 02:32:49;;;;;;;15.97;9.27;;;;;;;-2.10;70.81;97270.44;6115170;23;20183;-83
2022/01/30 02:35:20;;;;;;;13.50;8.80;;;;;;;-2.02;71.54;97273.06;6147094;23;20245;-84
2022/01/30 02:37:52;;;;;;;15.87;9.33;;;;;;;-2.65;71.37;97184.69;6117713;23;20199;-83
2022/01/30 02:40:27;;;;;;;12.80;8.30;;;;;;;-2.27;71.81;97261.88;6141897;23;20197;-84
2022/01/30 02:42:58;;;;;;;14.67;8.63;;;;;;;-2.76;72.80;97209.94;6164774;23;20219;-83
2022/01/30 02:45:30;;;;;;;14.47;8.73;;;;;;;-2.70;73.75;97252.22;6140189;23;20169;-83
2022/01/30 02:48:16;;;;;;;14.30;8.47;;;;;;;-2.82;74.36;97252.09;6140715;23;20206;-83
2022/01/30 02:53:15;;;;;;;12.33;7.37;;;;;;;-2.67;74.31;97267.44;6114851;23;20247;-83
2022/01/30 02:55:45;;;;;;;16.10;7.80;;;;;;;-2.74;73.75;97240.38;6124021;23;20177;-84
2022/01/30 02:58:21;;;;;;;11.83;7.27;;;;;;;-3.00;74.55;97239.25;6147528;23;20173;-84
2022/01/30 03:00:53;;;;;;;10.30;7.00;;;;;;;-3.05;74.78;97240.91;6148945;23;20169;-83
2022/01/30 03:03:28;;;;;;;12.70;7.27;;;;;;;-2.83;74.44;97263.06;6148081;23;20203;-83
2022/01/30 03:06:11;;;;;;;15.90;8.43;;;;;;;-2.96;74.72;97246.06;6144607;23;20176;-83
2022/01/30 03:08:40;;;;;;;12.67;7.90;;;;;;;-3.24;75.03;97217.09;6124834;23;20204;-83
2022/01/30 03:11:09;;;;;;;12.80;8.47;;;;;;;-3.28;75.64;97228.03;6166802;23;20167;-85
2022/01/30 03:13:39;;;;;;;13.00;7.93;;;;;;;-3.19;76.28;97243.28;6137608;23;20209;-84
2022/01/30 03:16:10;;;;;;;15.27;8.07;;;;;;;-3.10;75.16;97219.75;6105849;23;20176;-83
2022/01/30 03:18:40;;;;;;;14.00;7.73;;;;;;;-2.70;74.35;97247.16;6109364;23;20172;-84
2022/01/30 03:21:09;;;;;;;13.93;7.93;;;;;;;-2.56;72.91;97235.44;6133168;23;20170;-83
2022/01/30 03:23:40;;;;;;;13.17;7.60;;;;;;;-2.91;73.39;97214.03;6131640;23;20176;-83
2022/01/30 03:26:13;;;;;;;11.03;6.90;;;;;;;-2.67;73.90;97224.38;6080773;23;20650;-82
2022/01/30 03:28:52;;;;;;;15.13;8.40;;;;;;;-2.53;72.72;97226.19;6111159;23;20205;-83
2022/01/30 03:31:28;;;;;;;18.17;10.00;;;;;;;-2.65;72.11;97202.41;6151152;23;20164;-83
2022/01/30 03:33:56;;;;;;;16.60;8.83;;;;;;;-2.79;72.90;97209.06;6131781;23;20175;-83
2022/01/30 03:36:34;;;;;;;13.90;7.30;;;;;;;-2.84;73.47;97210.69;6132136;23;20260;-83
2022/01/30 03:39:04;;;;;;;14.87;8.10;;;;;;;-3.33;75.04;97187.47;6149711;23;20205;-84
2022/01/30 03:41:32;;;;;;;16.50;8.30;;;;;;;-3.47;76.21;97191.53;6151349;23;20191;-84
2022/01/30 03:44:02;;;;;;;13.43;7.97;;;;;;;-3.78;76.42;97143.09;6096750;23;20198;-83
2022/01/30 03:46:34;;;;;;;14.10;7.90;;;;;;;-3.59;76.61;97175.38;6148962;23;20179;-83
2022/01/30 03:49:23;;;;;;;9.97;7.40;;;;;;;-3.53;77.59;97191.47;6153054;23;20471;-83
2022/01/30 03:51:55;;;;;;;11.77;7.27;;;;;;;-3.61;77.41;97170.28;6177116;23;20183;-84
2022/01/30 03:54:32;;;;;;;13.00;7.20;;;;;;;-3.62;77.60;97155.06;6153898;23;20229;-83
2022/01/30 03:57:05;;;;;;;17.17;7.73;;;;;;;-3.60;77.10;97163.53;6132004;23;20172;-83
2022/01/30 03:59:38;;;;;;;11.30;6.97;;;;;;;-3.72;77.54;97125.44;6154699;23;20178;-83
2022/01/30 04:02:09;;;;;;;14.67;7.17;;;;;;;-3.51;76.30;97169.56;6155338;23;20158;-84
2022/01/30 04:04:37;;;;;;;11.90;6.33;;;;;;;-3.50;76.99;97167.84;6156371;23;20176;-84
2022/01/30 04:07:05;;;;;;;12.20;6.37;;;;;;;-3.41;76.07;97171.34;6156506;23;20181;-84
2022/01/30 04:09:53;;;;;;;14.00;7.43;;;;;;;-3.31;76.69;97163.00;6145895;23;20178;-83
2022/01/30 04:12:30;;;;;;;14.33;7.10;;;;;;;-3.23;76.16;97164.75;6138639;23;20167;-83
2022/01/30 04:15:30;;;;;;;11.97;7.30;;;;;;;-3.22;76.05;97138.59;6117495;23;20223;-83
2022/01/30 04:18:14;;;;;;;10.63;6.80;;;;;;;-2.95;75.41;97156.56;6132194;23;20179;-83
2022/01/30 04:20:51;;;;;;;16.33;7.80;;;;;;;-2.83;74.43;97147.41;6155215;23;20235;-83
2022/01/30 04:23:42;;;;;;;11.47;7.03;;;;;;;-2.74;73.56;97161.81;6153991;23;20180;-83
2022/01/30 04:26:39;;;;;;;10.40;6.43;;;;;;;-2.88;74.16;97178.56;6125405;23;20180;-83
2022/01/30 04:29:26;;;;;;;13.77;7.17;;;;;;;-2.79;73.50;97163.47;6157823;23;20234;-83
2022/01/30 04:32:16;;;;;;;13.10;7.20;;;;;;;-2.72;72.66;97170.28;6069750;23;20169;-83
2022/01/30 04:35:19;;;;;;;12.03;7.27;;;;;;;-2.81;73.24;97171.06;6124702;23;20176;-84
2022/01/30 04:57:01;;;;;;;16.87;8.73;;;;;;;-3.20;74.86;97131.88;6156968;23;20257;-83
2022/01/30 05:08:39;;;;;;;11.23;6.87;;;;;;;-3.30;75.28;97124.19;6149181;23;20672;-84
2022/01/30 05:11:25;;;;;;;15.33;8.47;;;;;;;-3.33;75.76;97121.66;6139938;23;20206;-83
2022/01/30 05:14:14;;;;;;;10.47;6.87;;;;;;;-3.46;76.41;97108.84;6109645;23;20179;-83
2022/01/30 05:16:53;;;;;;;9.63;6.10;;;;;;;-3.48;76.76;97113.03;6080433;23;20588;-83
2022/01/30 05:19:41;;;;;;;12.57;6.57;;;;;;;-3.66;77.66;97080.84;6072276;23;20159;-83
2022/01/30 05:22:32;;;;;;;10.57;6.17;;;;;;;-3.46;77.38;97097.03;6121011;23;20162;-82
2022/01/30 05:25:37;;;;;;;13.00;7.43;;;;;;;-3.55;76.68;97071.66;6111998;23;20158;-83
2022/01/30 05:28:15;;;;;;;11.33;7.13;;;;;;;-3.52;77.43;97081.81;6120846;23;20204;-83
2022/01/30 05:31:11;;;;;;;10.87;6.40;;;;;;;-3.62;77.17;97076.63;6118432;23;20176;-83
2022/01/30 05:34:40;;;;;;;12.73;8.37;;;;;;;-3.44;77.17;97094.53;5994575;23;20175;-82
2022/01/30 05:37:23;;;;;;;12.97;7.10;;;;;;;-3.55;77.83;97081.78;6012620;23;20210;-84
2022/01/30 05:40:10;;;;;;;10.57;5.83;;;;;;;-3.76;77.65;97051.22;6118210;23;20176;-84
2022/01/30 05:43:18;;;;;;;13.87;6.50;;;;;;;-3.59;77.31;97054.78;6020325;23;20164;-84
2022/01/30 05:46:29;;;;;;;12.93;7.13;;;;;;;-3.58;77.00;97046.31;6075806;23;20193;-82
2022/01/30 05:49:25;;;;;;;10.47;7.23;;;;;;;-3.51;77.13;97060.75;6153926;23;20199;-83
2022/01/30 05:52:09;;;;;;;11.97;7.30;;;;;;;-3.37;77.00;97076.88;6153462;23;20168;-84
2022/01/30 05:54:50;;;;;;;10.97;6.23;;;;;;;-3.39;76.38;97053.25;6130678;23;20216;-83
2022/01/30 05:57:20;;;;;;;12.23;7.87;;;;;;;-3.27;76.27;97049.97;6128565;23;20169;-84
2022/01/30 05:59:52;;;;;;;18.37;9.20;;;;;;;-3.11;75.47;97063.59;6152859;23;20177;-83
2022/01/30 06:02:44;;;;;;;15.80;9.10;;;;;;;-3.15;75.68;97061.88;6152813;23;20240;-83
2022/01/30 06:05:15;;;;;;;20.37;9.80;;;;;;;-3.12;75.71;97046.69;6149975;23;20176;-83
2022/01/30 06:07:56;;;;;;;20.20;9.17;;;;;;;-3.11;75.44;97031.50;6152978;23;20194;-83
2022/01/30 06:10:27;;;;;;;17.93;9.00;;;;;;;-2.98;74.81;97004.56;6150347;23;20167;-83
2022/01/30 06:12:56;;;;;;;18.00;10.07;;;;;;;-2.62;74.58;97045.34;6122842;23;20166;-83
2022/01/30 06:15:24;;;;;;;13.97;8.63;;;;;;;-2.44;73.96;97047.94;6132985;23;20182;-83
2022/01/30 06:18:04;;;;;;;17.53;10.37;;;;;;;-2.24;72.60;97046.34;6156325;23;20232;-82
2022/01/30 06:20:56;;;;;;;15.50;9.67;;;;;;;-2.33;72.99;97048.84;6158589;23;20165;-82
2022/01/30 06:23:56;;;;;;;22.03;10.37;;;;;;;-2.22;72.41;97042.13;6080057;23;20168;-82
2022/01/30 06:26:57;;;;;;;22.63;10.80;;;;;;;-1.82;71.17;97032.94;6114308;23;20219;-82
2022/01/30 06:29:43;;;;;;;21.00;11.30;;;;;;;-1.51;70.95;97042.31;6132210;23;20171;-82
2022/01/30 06:32:19;;;;;;;23.50;12.93;;;;;;;-1.38;69.26;97043.16;6131918;23;20179;-82
2022/01/30 06:35:05;;;;;;;20.93;12.37;;;;;;;-1.55;69.76;97027.06;6178452;23;20187;-82
2022/01/30 06:37:44;;;;;;;20.00;11.27;;;;;;;-1.47;69.66;97036.38;6141767;23;20202;-82
2022/01/30 06:40:35;;;;;;;18.73;11.50;;;;;;;-1.39;69.67;97039.75;6125484;23;20175;-82
2022/01/30 06:43:23;;;;;;;19.67;11.60;;;;;;;-1.11;69.04;97051.59;6092881;23;20178;-82
2022/01/30 06:46:15;;;;;;;17.30;11.50;;;;;;;-1.04;68.63;97043.16;6134546;23;20193;-82
2022/01/30 06:49:23;;;;;;;21.53;10.70;;;;;;;-0.96;68.31;97027.88;6042198;23;20223;-82
2022/01/30 06:52:11;;;;;;;19.07;11.60;;;;;;;-0.77;67.48;97016.84;6112395;23;20588;-80
2022/01/30 06:55:00;;;;;;;22.53;12.27;;;;;;;-0.64;66.83;97013.44;6129943;23;20254;-81
2022/01/30 06:57:48;;;;;;;21.60;13.10;;;;;;;-0.49;67.17;97015.91;6131647;23;20254;-83
2022/01/30 07:00:43;;;;;;;20.77;13.10;;;;;;;-0.32;65.81;97023.47;6141560;23;20175;-82
2022/01/30 07:04:33;;;;;;;21.47;12.63;;;;;;;-0.19;65.40;97008.19;6047398;23;20178;-82
2022/01/30 07:07:40;;;;;;;22.63;13.60;;;;;;;-0.23;65.20;96963.22;6035046;23;20760;-81
2022/01/30 07:10:11;;;;;;;24.97;14.67;;;;;;;-0.33;65.44;96989.56;6041604;23;20237;-82
2022/01/30 07:12:43;;;;;;;24.20;13.77;;;;;;;0.02;65.08;97012.31;6029355;23;20174;-82
2022/01/30 07:15:16;;;;;;;19.17;12.73;;;;;;;0.14;65.86;97009.69;6108982;23;20651;-82
2022/01/30 07:17:45;;;;;;;19.73;12.47;;;;;;;0.07;64.90;97012.25;6158463;23;20201;-87
2022/01/30 07:20:14;;;;;;;23.87;14.33;;;;;;;0.02;65.54;96981.78;6117574;23;20179;-83
2022/01/30 07:23:00;;;;;;;21.70;12.47;;;;;;;-0.06;65.19;96989.44;6139672;23;20198;-83
2022/01/30 07:25:56;;;;;;;21.63;12.53;;;;;;;-0.19;66.61;96976.78;6111060;23;20650;-82
2022/01/30 07:28:28;;;;;;;20.30;12.57;;;;;;;-0.20;66.58;97000.53;6136227;23;20249;-83
2022/01/30 07:31:00;;;;;;;21.90;12.93;;;;;;;-0.35;68.19;96991.25;6113464;23;20166;-83
2022/01/30 07:33:30;;;;;;;17.67;11.90;;;;;;;-0.37;68.55;96970.06;6162284;23;20207;-82
2022/01/30 07:35:58;;;;;;;20.10;11.47;;;;;;;-0.18;68.70;96998.81;6102602;23;20461;-82
2022/01/30 07:38:28;;;;;;;18.10;11.17;;;;;;;-0.09;69.58;96980.97;6101954;23;20207;-83
2022/01/30 07:41:12;;;;;;;13.00;7.50;;;;;;;0.00;68.73;96983.47;6133059;23;20190;-84
2022/01/30 07:44:02;;;;;;;11.50;7.37;;;;;;;-0.29;70.53;96965.78;6129581;23;20262;-82
2022/01/30 07:46:31;;;;;;;11.50;7.10;;;;;;;-0.26;71.24;96955.63;6102261;23;20183;-82
2022/01/30 07:48:59;;;;;;;13.80;8.00;;;;;;;-0.34;70.78;96952.28;6080967;23;20203;-82
2022/01/30 07:51:30;;;;;;;15.83;9.33;;;;;;;-0.18;70.41;96955.56;6130679;23;20171;-85
2022/01/30 07:53:59;;;;;;;20.07;9.73;;;;;;;-0.22;70.97;96977.66;6131705;23;20514;-82
2022/01/30 07:56:31;;;;;;;16.77;8.90;;;;;;;-0.34;71.18;96962.44;6108489;23;20530;-84
2022/01/30 07:58:59;;;;;;;15.93;9.07;;;;;;;-0.46;71.31;96939.63;6157495;23;20167;-81
2022/01/30 08:01:27;;;;;;;19.93;12.07;;;;;;;-0.15;71.59;96943.69;6154346;23;20242;-82
2022/01/30 08:04:00;;;;;;;20.20;12.07;;;;;;;0.04;71.52;96928.31;6132263;23;20614;-82
2022/01/30 08:06:57;;;;;;;17.57;12.23;;;;;;;0.29;70.08;96940.00;6154840;23;20182;-86
2022/01/30 08:09:30;;;;;;;19.63;11.87;;;;;;;0.45;70.39;96944.13;6110754;23;20494;-84
2022/01/30 08:12:07;;;;;;;23.50;13.33;;;;;;;0.56;69.21;96930.44;6130492;23;20270;-84
2022/01/30 08:14:39;;;;;;;24.77;14.50;;;;;;;0.62;68.80;96919.31;6131863;23;20202;-83
2022/01/30 08:17:08;;;;;;;28.90;15.60;;;;;;;0.68;69.63;96904.00;6156661;23;20242;-84
2022/01/30 08:19:44;;;;;;;24.83;16.20;;;;;;;0.67;68.85;96899.75;6109745;23;20179;-83
2022/01/30 08:22:12;;;;;;;34.40;18.83;;;;;;;0.83;68.61;96924.22;6105998;23;20658;-84
2022/01/30 08:24:42;;;;;;;30.83;19.20;;;;;;;0.81;67.64;96936.13;6131186;23;20195;-83
2022/01/30 08:27:09;;;;;;;33.00;17.47;;;;;;;0.90;66.62;96943.72;6129966;23;20170;-83
2022/01/30 08:29:38;;;;;;;35.47;18.57;;;;;;;0.63;67.06;96906.59;6125920;23;20266;-83
2022/01/30 08:32:11;;;;;;;35.07;17.87;;;;;;;0.89;67.24;96947.09;6101380;23;20218;-83
2022/01/30 08:34:44;;;;;;;33.17;19.33;;;;;;;0.96;68.27;96946.19;6127257;23;20171;-83
2022/01/30 08:37:11;;;;;;;32.27;18.13;;;;;;;0.93;68.10;96935.19;6153207;23;20282;-83
2022/01/30 08:39:40;;;;;;;23.77;13.53;;;;;;;0.81;66.27;96915.75;6130670;23;20206;-83
2022/01/30 08:42:10;;;;;;;24.27;13.77;;;;;;;0.86;66.20;96903.81;6136471;23;20171;-83
2022/01/30 08:44:40;;;;;;;27.83;15.73;;;;;;;0.94;65.48;96911.38;6139816;23;20178;-83
2022/01/30 08:47:07;;;;;;;24.80;14.77;;;;;;;0.88;66.88;96921.63;6122287;23;20189;-83
2022/01/30 08:49:35;;;;;;;26.90;15.37;;;;;;;0.98;66.97;96882.44;6148297;23;20202;-84
2022/01/30 08:52:04;;;;;;;31.17;14.70;;;;;;;0.86;66.49;96862.19;6142141;23;20503;-83
2022/01/30 08:54:34;;;;;;;25.63;14.97;;;;;;;1.14;67.60;96906.91;6138886;23;20171;-85
2022/01/30 08:57:02;;;;;;;21.80;13.57;;;;;;;1.12;65.97;96890.78;6133212;23;20159;-84
2022/01/30 08:59:32;;;;;;;26.03;15.00;;;;;;;1.28;65.90;96890.56;6136347;23;20174;-84
2022/01/30 09:01:59;;;;;;;27.47;14.73;;;;;;;1.33;67.74;96896.47;6140416;23;20169;-84
2022/01/30 09:04:28;;;;;;;25.67;14.27;;;;;;;1.19;66.55;96883.06;6115957;23;20254;-85
2022/01/30 09:07:04;;;;;;;29.20;15.10;;;;;;;1.36;65.90;96881.13;6129497;23;20175;-88
2022/01/30 09:09:34;;;;;;;27.77;15.83;;;;;;;1.30;65.26;96868.44;6126797;23;20218;-83
2022/01/30 09:12:03;;;;;;;25.90;15.50;;;;;;;1.60;65.04;96896.13;6134233;23;20177;-83
2022/01/30 09:14:33;;;;;;;33.73;15.30;;;;;;;1.78;64.23;96884.81;6154210;23;20171;-84
2022/01/30 09:17:02;;;;;;;27.43;15.93;;;;;;;1.84;63.91;96873.66;6128683;23;20166;-83
2022/01/30 09:19:44;;;;;;;27.03;13.37;;;;;;;2.02;62.66;96891.28;6152107;23;20171;-84
2022/01/30 09:22:38;;;;;;;23.70;14.43;;;;;;;2.13;62.32;96881.75;6151826;23;20167;-84
2022/01/30 09:25:07;;;;;;;28.03;16.03;;;;;;;1.82;62.90;96854.97;6126465;23;20237;-83
2022/01/30 09:27:44;;;;;;;30.60;16.77;;;;;;;2.25;62.92;96869.63;6103107;23;20237;-83
2022/01/30 09:30:14;;;;;;;35.23;18.60;;;;;;;2.42;61.96;96880.41;6152282;23;20222;-84
2022/01/30 09:32:44;;;;;;;26.80;13.90;;;;;;;2.44;59.81;96850.56;6105201;23;20175;-83
2022/01/30 09:35:14;;;;;;;27.37;14.37;;;;;;;2.48;58.07;96828.34;6130078;23;20629;-84
2022/01/30 09:37:43;;;;;;;25.67;12.23;;;;;;;2.66;57.42;96868.09;6155612;23;20198;-84
2022/01/30 09:40:18;;;;;;;26.87;12.83;;;;;;;2.75;59.03;96855.13;6131227;23;20261;-83
2022/01/30 09:42:47;;;;;;;17.53;12.30;;;;;;;2.86;57.78;96850.69;6129505;23;20163;-83
2022/01/30 09:45:18;;;;;;;21.80;11.67;;;;;;;2.83;57.89;96861.78;6103364;23;20243;-83
2022/01/30 09:47:48;;;;;;;23.30;11.20;;;;;;;2.79;58.03;96841.41;6079182;23;20250;-83
2022/01/30 09:50:19;;;;;;;18.43;11.20;;;;;;;2.79;57.06;96854.19;6103153;23;20201;-82
2022/01/30 09:52:47;;;;;;;16.67;11.33;;;;;;;2.75;56.96;96824.44;6129477;23;20182;-83
2022/01/30 09:55:20;;;;;;;21.23;12.63;;;;;;;2.88;56.96;96829.31;6129467;23;20175;-83
2022/01/30 09:57:50;;;;;;;18.07;11.17;;;;;;;2.84;57.56;96819.19;6103014;23;20608;-83
2022/01/30 10:00:21;;;;;;;19.37;11.33;;;;;;;2.85;56.80;96801.25;6105891;23;20198;-83
2022/01/30 10:02:52;;;;;;;18.43;10.53;;;;;;;2.92;56.90;96813.06;6081823;23;20175;-84
2022/01/30 10:05:21;;;;;;;15.93;9.83;;;;;;;3.25;56.60;96768.88;6127386;23;20262;-84
2022/01/30 10:07:55;;;;;;;19.00;11.67;;;;;;;3.01;56.27;96805.19;6152661;23;20183;-84
2022/01/30 10:10:30;;;;;;;19.23;11.37;;;;;;;2.90;55.95;96771.31;6102344;23;20701;-83
2022/01/30 10:13:12;;;;;;;19.70;10.03;;;;;;;3.00;55.16;96744.69;6151979;23;20650;-83
2022/01/30 10:15:56;;;;;;;17.13;9.83;;;;;;;3.30;54.70;96759.38;6152495;23;20252;-85
2022/01/30 10:19:12;;;;;;;17.73;9.03;;;;;;;3.61;53.06;96767.19;6128523;23;20234;-85
2022/01/30 10:22:03;;;;;;;18.77;9.90;;;;;;;3.86;52.94;96780.25;6101712;23;20543;-84
2022/01/30 10:24:48;;;;;;;19.40;11.57;;;;;;;4.11;52.61;96766.00;6103859;23;20635;-85
2022/01/30 10:27:25;;;;;;;23.13;12.43;;;;;;;4.26;51.68;96726.31;6151679;23;20196;-80
2022/01/30 10:30:22;;;;;;;22.43;12.50;;;;;;;4.53;51.14;96726.44;6125803;23;20209;-81
2022/01/30 10:32:56;;;;;;;21.07;12.53;;;;;;;4.49;51.06;96739.38;6124132;23;20508;-82
2022/01/30 10:35:23;;;;;;;30.37;15.67;;;;;;;4.56;52.02;96735.75;6131526;23;20598;-81
2022/01/30 10:38:39;;;;;;;21.93;14.67;;;;;;;4.53;51.18;96726.44;6158700;23;20247;-83
2022/01/30 10:42:00;;;;;;;24.17;13.67;;;;;;;4.38;50.09;96708.03;6159458;23;20173;-83
2022/01/30 10:45:25;;;;;;;18.03;10.30;;;;;;;4.20;49.20;96699.13;6135024;23;20175;-85
2022/01/30 10:48:18;;;;;;;17.87;9.93;;;;;;;4.17;48.36;96681.28;6138957;23;20233;-83
2022/01/30 10:50:49;;;;;;;50.03;26.50;;;;;;;4.11;48.64;96641.28;6163188;23;20193;-83
2022/01/30 10:53:24;;;;;;;26.37;13.40;;;;;;;4.43;48.23;96652.38;6138465;23;20246;-84
2022/01/30 10:55:53;;;;;;;18.63;9.63;;;;;;;4.67;46.36;96669.63;6163521;23;20505;-84
2022/01/30 10:58:24;;;;;;;21.83;10.77;;;;;;;4.69;46.39;96673.84;6165432;23;20171;-83
2022/01/30 11:00:54;;;;;;;17.13;9.30;;;;;;;4.87;46.57;96664.75;6135252;23;20224;-83
2022/01/30 11:03:55;;;;;;;22.87;11.63;;;;;;;4.93;45.78;96660.28;6133348;23;20173;-84
2022/01/30 11:06:42;;;;;;;17.53;8.83;;;;;;;5.18;45.88;96659.53;6065609;23;20207;-88
2022/01/30 11:09:19;;;;;;;14.93;8.30;;;;;;;4.97;46.29;96655.09;6136851;23;20565;-88
2022/01/30 11:12:01;;;;;;;11.13;7.87;;;;;;;5.02;45.82;96648.06;6166309;23;20223;-84
2022/01/30 11:14:38;;;;;;;13.10;8.20;;;;;;;5.06;45.66;96603.47;6157818;23;20170;-83
2022/01/30 11:17:20;;;;;;;12.97;8.10;;;;;;;5.44;45.51;96608.22;6105045;23;20175;-90
2022/01/30 11:19:56;;;;;;;15.10;7.87;;;;;;;5.44;45.89;96610.81;6155932;23;20523;-85
2022/01/30 11:22:29;;;;;;;25.27;11.70;;;;;;;5.63;46.46;96593.88;6158747;23;20224;-90
2022/01/30 11:25:08;;;;;;;15.43;10.03;;;;;;;5.62;45.87;96584.50;6106403;23;20231;-90
2022/01/30 11:27:36;;;;;;;15.23;8.20;;;;;;;5.56;45.38;96559.84;6108381;23;20181;-92
2022/01/30 11:30:06;;;;;;;12.07;7.40;;;;;;;5.90;44.68;96563.84;6111386;23;20199;-93
2022/01/30 11:32:36;;;;;;;11.17;7.30;;;;;;;5.95;44.67;96567.97;6108616;23;20176;-93
2022/01/30 11:35:09;;;;;;;24.30;10.00;;;;;;;6.18;44.05;96564.56;6131480;23;20632;-84
2022/01/30 11:37:40;;;;;;;23.17;9.83;;;;;;;6.32;44.65;96560.59;6126628;23;20638;-83
2022/01/30 11:40:13;;;;;;;17.07;9.60;;;;;;;6.56;43.53;96561.41;6124241;23;20197;-84
2022/01/30 11:42:46;;;;;;;19.23;9.40;;;;;;;6.47;43.71;96564.34;6124604;23;20204;-84
2022/01/30 11:45:27;;;;;;;13.30;9.13;;;;;;;6.43;44.26;96570.47;6074844;23;20538;-82
2022/01/30 11:48:12;;;;;;;15.23;8.93;;;;;;;6.54;43.71;96561.47;6150251;23;20178;-84
2022/01/30 11:50:43;;;;;;;24.70;11.50;;;;;;;6.66;44.32;96551.63;6124271;23;20280;-83
2022/01/30 11:53:27;;;;;;;23.10;10.83;;;;;;;6.60;43.49;96526.97;6104729;23;20192;-89
2022/01/30 11:56:11;;;;;;;15.53;9.90;;;;;;;6.49;43.28;96553.09;6131240;23;20259;-82
2022/01/30 11:58:57;;;;;;;18.87;11.43;;;;;;;6.71;44.51;96552.28;6127259;23;20263;-83
2022/01/30 12:01:27;;;;;;;23.73;12.50;;;;;;;6.83;43.65;96544.09;6155200;23;20580;-84
2022/01/30 12:04:00;;;;;;;16.13;10.10;;;;;;;6.89;43.55;96533.53;6160109;23;20171;-90
2022/01/30 12:06:36;;;;;;;14.03;9.67;;;;;;;6.96;43.76;96529.84;6135076;23;20221;-82
2022/01/30 12:09:19;;;;;;;19.83;10.40;;;;;;;7.06;44.62;96526.00;6111131;23;20203;-84
2022/01/30 12:11:51;;;;;;;17.83;9.80;;;;;;;7.09;43.83;96529.28;6138921;23;20179;-88
2022/01/30 12:14:20;;;;;;;22.30;10.43;;;;;;;7.17;42.62;96521.25;6118690;23;20181;-83
2022/01/30 12:17:31;;;;;;;19.37;10.70;;;;;;;7.29;43.38;96524.16;6127157;23;20250;-84
2022/01/30 12:20:53;;;;;;;22.37;12.03;;;;;;;7.33;42.57;96523.16;6149036;23;20167;-83
2022/01/30 12:24:15;;;;;;;16.23;10.07;;;;;;;7.27;43.21;96520.00;6101099;23;20178;-83
2022/01/30 12:27:50;;;;;;;15.97;9.40;;;;;;;7.07;43.23;96527.66;6156316;23;20647;-82
2022/01/30 12:30:56;;;;;;;14.50;9.30;;;;;;;7.10;43.61;96524.97;6152381;23;20206;-83
2022/01/30 12:34:22;;;;;;;12.83;7.90;;;;;;;7.13;43.76;96502.50;6079536;23;20171;-83
2022/01/30 12:37:43;;;;;;;10.67;6.60;;;;;;;6.95;44.15;96468.94;6152160;23;20215;-84
2022/01/30 12:41:05;;;;;;;16.17;7.03;;;;;;;7.07;44.50;96487.31;6126753;23;20633;-84
2022/01/30 12:44:26;;;;;;;16.77;7.60;;;;;;;7.03;44.01;96480.63;6151050;23;20168;-84
2022/01/30 12:47:48;;;;;;;18.40;9.27;;;;;;;6.95;44.39;96463.81;6152180;23;20189;-83
2022/01/30 12:51:13;;;;;;;17.13;9.10;;;;;;;7.01;45.05;96466.97;6153679;23;20195;-82
2022/01/30 12:54:39;;;;;;;12.50;8.20;;;;;;;7.03;44.62;96462.59;6154255;23;20205;-83
2022/01/30 12:58:01;;;;;;;17.10;8.03;;;;;;;7.06;44.21;96489.97;6126091;23;20196;-83
2022/01/30 13:01:25;;;;;;;20.70;8.53;;;;;;;7.05;44.11;96473.66;6150700;23;20167;-83
2022/01/30 13:04:47;;;;;;;9.23;6.47;;;;;;;7.01;45.19;96487.56;6148647;23;20262;-83
2022/01/30 13:08:12;;;;;;;11.97;6.33;;;;;;;6.91;45.26;96477.69;6127452;23;20171;-83
2022/01/30 13:11:37;;;;;;;12.07;6.57;;;;;;;6.84;44.58;96482.25;6128548;23;20209;-82
2022/01/30 13:14:59;;;;;;;9.17;6.27;;;;;;;6.73;44.59;96486.16;6150118;23;20175;-83
2022/01/30 13:18:21;;;;;;;20.33;10.57;;;;;;;6.77;45.96;96496.28;6101603;23;20208;-84
2022/01/30 13:21:45;;;;;;;25.50;13.97;;;;;;;6.69;46.19;96489.75;6129804;23;20202;-85
2022/01/30 13:25:17;;;;;;;23.70;13.27;;;;;;;6.74;45.67;96498.97;6134533;23;20292;-82
2022/01/30 13:28:39;;;;;;;25.93;13.77;;;;;;;6.64;46.09;96486.50;6132051;23;20250;-87
2022/01/30 13:31:59;;;;;;;24.30;13.67;;;;;;;6.67;46.58;96476.13;6107934;23;20257;-86
2022/01/30 13:35:22;;;;;;;24.13;13.37;;;;;;;6.81;47.05;96478.97;6127915;23;20186;-90
2022/01/30 13:38:44;;;;;;;22.07;13.80;;;;;;;6.68;46.67;96477.81;6104474;23;20708;-83